sensor_id;sensor_type;location;lat;lon;timestamp;P1;durP1;ratioP1;P2;durP2;ratioP2
11996;SDS011;6058;48.704;9.474;2022-10-16T00:01:13;6.37;;;2.87;;
11996;SDS011;6058;48.704;9.474;2022-10-16T00:03:41;4.47;;;2.60;;
11996;SDS011;6058;48.704;9.474;2022-10-16T00:06:09;4.00;;;2.47;;
11996;SDS011;6058;48.704;9.474;2022-10-16T00:08:36;3.13;;;2.90;;
11996;SDS011;6058;48.704;9.474;2022-10-16T00:11:05;5.40;;;3.13;;
11996;SDS011;6058;48.704;9.474;2022-10-16T00:13:34;6.10;;;2.80;;
11996;SDS011;6058;48.704;9.474;2022-10-16T00:16:02;2.53;;;2.17;;
11996;SDS011;6058;48.704;9.474;2022-10-16T00:18:31;4.77;;;2.47;;
11996;SDS011;6058;48.704;9.474;2022-10-16T00:21:01;4.67;;;2.50;;
11996;SDS011;6058;48.704;9.474;2022-10-16T00:23:28;6.30;;;2.40;;
11996;SDS011;6058;48.704;9.474;2022-10-16T00:25:56;4.27;;;2.57;;
11996;SDS011;6058;48.704;9.474;2022-10-16T00:28:24;3.97;;;2.70;;
11996;SDS011;6058;48.704;9.474;2022-10-16T00:30:52;4.43;;;2.30;;
11996;SDS011;6058;48.704;9.474;2022-10-16T00:33:19;6.83;;;2.57;;
11996;SDS011;6058;48.704;9.474;2022-10-16T00:35:47;6.53;;;2.30;;
11996;SDS011;6058;48.704;9.474;2022-10-16T00:38:15;2.23;;;2.03;;
11996;SDS011;6058;48.704;9.474;2022-10-16T00:40:42;5.23;;;2.70;;
11996;SDS011;6058;48.704;9.474;2022-10-16T00:43:13;2.70;;;2.47;;
11996;SDS011;6058;48.704;9.474;2022-10-16T00:45:41;4.93;;;2.47;;
11996;SDS011;6058;48.704;9.474;2022-10-16T00:48:11;2.87;;;2.33;;
11996;SDS011;6058;48.704;9.474;2022-10-16T00:50:40;2.97;;;2.40;;
11996;SDS011;6058;48.704;9.474;2022-10-16T00:53:08;2.83;;;2.47;;
11996;SDS011;6058;48.704;9.474;2022-10-16T00:55:37;2.27;;;2.07;;
11996;SDS011;6058;48.704;9.474;2022-10-16T00:58:04;3.23;;;2.40;;
11996;SDS011;6058;48.704;9.474;2022-10-16T01:00:31;4.73;;;2.70;;
11996;SDS011;6058;48.704;9.474;2022-10-16T01:02:59;4.33;;;2.43;;
11996;SDS011;6058;48.704;9.474;2022-10-16T01:05:30;6.33;;;2.37;;
11996;SDS011;6058;48.704;9.474;2022-10-16T01:07:58;4.20;;;2.30;;
11996;SDS011;6058;48.704;9.474;2022-10-16T01:10:30;4.57;;;2.37;;
11996;SDS011;6058;48.704;9.474;2022-10-16T01:13:02;2.23;;;2.03;;
11996;SDS011;6058;48.704;9.474;2022-10-16T01:15:32;2.47;;;2.27;;
11996;SDS011;6058;48.704;9.474;2022-10-16T01:18:02;8.60;;;2.33;;
11996;SDS011;6058;48.704;9.474;2022-10-16T01:20:35;3.20;;;2.50;;
11996;SDS011;6058;48.704;9.474;2022-10-16T01:23:06;3.27;;;2.10;;
11996;SDS011;6058;48.704;9.474;2022-10-16T01:28:19;3.20;;;1.83;;
11996;SDS011;6058;48.704;9.474;2022-10-16T01:30:47;2.33;;;2.00;;
11996;SDS011;6058;48.704;9.474;2022-10-16T01:33:17;2.47;;;1.80;;
11996;SDS011;6058;48.704;9.474;2022-10-16T01:35:46;4.67;;;2.03;;
11996;SDS011;6058;48.704;9.474;2022-10-16T01:38:15;2.27;;;1.93;;
11996;SDS011;6058;48.704;9.474;2022-10-16T01:40:44;7.87;;;2.20;;
11996;SDS011;6058;48.704;9.474;2022-10-16T01:43:13;4.07;;;1.90;;
11996;SDS011;6058;48.704;9.474;2022-10-16T01:45:43;2.73;;;1.77;;
11996;SDS011;6058;48.704;9.474;2022-10-16T01:48:11;3.83;;;1.73;;
11996;SDS011;6058;48.704;9.474;2022-10-16T01:50:39;3.17;;;1.90;;
11996;SDS011;6058;48.704;9.474;2022-10-16T01:53:07;5.87;;;2.10;;
11996;SDS011;6058;48.704;9.474;2022-10-16T01:55:37;1.90;;;1.80;;
11996;SDS011;6058;48.704;9.474;2022-10-16T01:58:08;2.20;;;1.67;;
11996;SDS011;6058;48.704;9.474;2022-10-16T02:00:36;3.57;;;1.70;;
11996;SDS011;6058;48.704;9.474;2022-10-16T02:03:05;2.97;;;1.73;;
11996;SDS011;6058;48.704;9.474;2022-10-16T02:05:34;4.83;;;1.80;;
11996;SDS011;6058;48.704;9.474;2022-10-16T02:08:04;2.83;;;1.90;;
11996;SDS011;6058;48.704;9.474;2022-10-16T02:10:31;1.90;;;1.70;;
11996;SDS011;6058;48.704;9.474;2022-10-16T02:13:03;2.10;;;1.93;;
11996;SDS011;6058;48.704;9.474;2022-10-16T02:15:30;2.00;;;1.73;;
11996;SDS011;6058;48.704;9.474;2022-10-16T02:17:57;2.40;;;1.70;;
11996;SDS011;6058;48.704;9.474;2022-10-16T02:20:27;1.70;;;1.60;;
11996;SDS011;6058;48.704;9.474;2022-10-16T02:22:54;1.57;;;1.47;;
11996;SDS011;6058;48.704;9.474;2022-10-16T02:25:24;3.03;;;1.60;;
11996;SDS011;6058;48.704;9.474;2022-10-16T02:27:52;1.70;;;1.60;;
11996;SDS011;6058;48.704;9.474;2022-10-16T02:30:21;6.93;;;1.80;;
11996;SDS011;6058;48.704;9.474;2022-10-16T02:32:51;3.10;;;1.90;;
11996;SDS011;6058;48.704;9.474;2022-10-16T02:35:19;4.40;;;1.73;;
11996;SDS011;6058;48.704;9.474;2022-10-16T02:37:48;6.23;;;1.80;;
11996;SDS011;6058;48.704;9.474;2022-10-16T02:40:17;2.30;;;1.77;;
11996;SDS011;6058;48.704;9.474;2022-10-16T02:42:44;3.67;;;2.00;;
11996;SDS011;6058;48.704;9.474;2022-10-16T02:45:11;2.17;;;1.70;;
11996;SDS011;6058;48.704;9.474;2022-10-16T02:47:38;2.07;;;1.70;;
11996;SDS011;6058;48.704;9.474;2022-10-16T02:50:06;2.90;;;1.50;;
11996;SDS011;6058;48.704;9.474;2022-10-16T02:52:33;4.50;;;1.23;;
11996;SDS011;6058;48.704;9.474;2022-10-16T02:55:01;1.90;;;1.80;;
11996;SDS011;6058;48.704;9.474;2022-10-16T02:57:28;5.03;;;1.90;;
11996;SDS011;6058;48.704;9.474;2022-10-16T02:59:56;3.23;;;1.47;;
11996;SDS011;6058;48.704;9.474;2022-10-16T03:02:24;1.47;;;1.37;;
11996;SDS011;6058;48.704;9.474;2022-10-16T03:04:51;1.60;;;1.40;;
11996;SDS011;6058;48.704;9.474;2022-10-16T03:07:18;4.73;;;1.40;;
11996;SDS011;6058;48.704;9.474;2022-10-16T03:09:45;2.90;;;1.40;;
11996;SDS011;6058;48.704;9.474;2022-10-16T03:12:14;2.97;;;1.50;;
11996;SDS011;6058;48.704;9.474;2022-10-16T03:14:41;4.10;;;1.43;;
11996;SDS011;6058;48.704;9.474;2022-10-16T03:17:08;1.40;;;1.30;;
11996;SDS011;6058;48.704;9.474;2022-10-16T03:19:35;4.70;;;1.50;;
11996;SDS011;6058;48.704;9.474;2022-10-16T03:22:02;1.40;;;1.30;;
11996;SDS011;6058;48.704;9.474;2022-10-16T03:24:30;4.03;;;1.60;;
11996;SDS011;6058;48.704;9.474;2022-10-16T03:26:57;1.23;;;1.23;;
11996;SDS011;6058;48.704;9.474;2022-10-16T03:29:25;1.70;;;1.17;;
11996;SDS011;6058;48.704;9.474;2022-10-16T03:31:54;1.30;;;1.30;;
11996;SDS011;6058;48.704;9.474;2022-10-16T03:34:21;1.70;;;1.00;;
11996;SDS011;6058;48.704;9.474;2022-10-16T03:36:49;1.07;;;1.07;;
11996;SDS011;6058;48.704;9.474;2022-10-16T03:39:16;3.87;;;1.40;;
11996;SDS011;6058;48.704;9.474;2022-10-16T03:41:43;1.00;;;1.00;;
11996;SDS011;6058;48.704;9.474;2022-10-16T03:44:11;1.33;;;1.20;;
11996;SDS011;6058;48.704;9.474;2022-10-16T03:46:39;1.93;;;1.20;;
11996;SDS011;6058;48.704;9.474;2022-10-16T03:49:07;2.30;;;1.17;;
11996;SDS011;6058;48.704;9.474;2022-10-16T03:51:34;3.00;;;1.30;;
11996;SDS011;6058;48.704;9.474;2022-10-16T03:54:01;2.93;;;1.03;;
11996;SDS011;6058;48.704;9.474;2022-10-16T03:56:28;1.70;;;1.30;;
11996;SDS011;6058;48.704;9.474;2022-10-16T03:58:55;1.40;;;1.30;;
11996;SDS011;6058;48.704;9.474;2022-10-16T04:01:22;1.10;;;1.10;;
11996;SDS011;6058;48.704;9.474;2022-10-16T04:03:51;1.00;;;0.90;;
11996;SDS011;6058;48.704;9.474;2022-10-16T04:06:18;2.13;;;1.10;;
11996;SDS011;6058;48.704;9.474;2022-10-16T04:08:45;8.50;;;1.30;;
11996;SDS011;6058;48.704;9.474;2022-10-16T04:11:12;3.07;;;1.40;;
11996;SDS011;6058;48.704;9.474;2022-10-16T04:13:39;1.53;;;1.20;;
11996;SDS011;6058;48.704;9.474;2022-10-16T04:16:07;5.37;;;1.17;;
11996;SDS011;6058;48.704;9.474;2022-10-16T04:18:34;1.47;;;1.20;;
11996;SDS011;6058;48.704;9.474;2022-10-16T04:21:04;3.77;;;1.10;;
11996;SDS011;6058;48.704;9.474;2022-10-16T04:23:32;2.73;;;1.27;;
11996;SDS011;6058;48.704;9.474;2022-10-16T04:25:59;2.73;;;1.30;;
11996;SDS011;6058;48.704;9.474;2022-10-16T04:28:27;4.20;;;1.20;;
11996;SDS011;6058;48.704;9.474;2022-10-16T04:30:54;2.30;;;1.00;;
11996;SDS011;6058;48.704;9.474;2022-10-16T04:33:21;1.47;;;1.10;;
11996;SDS011;6058;48.704;9.474;2022-10-16T04:35:48;2.43;;;1.43;;
11996;SDS011;6058;48.704;9.474;2022-10-16T04:38:23;3.50;;;1.33;;
11996;SDS011;6058;48.704;9.474;2022-10-16T04:40:51;4.63;;;1.10;;
11996;SDS011;6058;48.704;9.474;2022-10-16T04:43:18;1.37;;;1.27;;
11996;SDS011;6058;48.704;9.474;2022-10-16T04:45:45;1.27;;;1.20;;
11996;SDS011;6058;48.704;9.474;2022-10-16T04:48:12;1.07;;;1.07;;
11996;SDS011;6058;48.704;9.474;2022-10-16T04:50:40;4.93;;;1.20;;
11996;SDS011;6058;48.704;9.474;2022-10-16T04:53:07;2.50;;;1.30;;
11996;SDS011;6058;48.704;9.474;2022-10-16T04:55:36;8.03;;;1.73;;
11996;SDS011;6058;48.704;9.474;2022-10-16T04:58:03;3.20;;;1.63;;
11996;SDS011;6058;48.704;9.474;2022-10-16T05:00:30;1.40;;;1.30;;
11996;SDS011;6058;48.704;9.474;2022-10-16T05:02:57;11.43;;;1.60;;
11996;SDS011;6058;48.704;9.474;2022-10-16T05:05:25;4.27;;;1.20;;
11996;SDS011;6058;48.704;9.474;2022-10-16T05:07:52;5.93;;;1.53;;
11996;SDS011;6058;48.704;9.474;2022-10-16T05:10:20;1.67;;;1.40;;
11996;SDS011;6058;48.704;9.474;2022-10-16T05:12:48;1.00;;;0.90;;
11996;SDS011;6058;48.704;9.474;2022-10-16T05:15:16;2.83;;;1.00;;
11996;SDS011;6058;48.704;9.474;2022-10-16T05:20:11;1.30;;;1.20;;
11996;SDS011;6058;48.704;9.474;2022-10-16T05:22:38;1.20;;;1.10;;
11996;SDS011;6058;48.704;9.474;2022-10-16T05:25:06;3.87;;;1.00;;
11996;SDS011;6058;48.704;9.474;2022-10-16T05:27:33;5.60;;;1.30;;
11996;SDS011;6058;48.704;9.474;2022-10-16T05:30:02;1.10;;;1.10;;
11996;SDS011;6058;48.704;9.474;2022-10-16T05:32:29;4.47;;;2.47;;
11996;SDS011;6058;48.704;9.474;2022-10-16T05:34:56;3.17;;;1.10;;
11996;SDS011;6058;48.704;9.474;2022-10-16T05:37:24;1.23;;;1.10;;
11996;SDS011;6058;48.704;9.474;2022-10-16T05:39:52;0.80;;;0.80;;
11996;SDS011;6058;48.704;9.474;2022-10-16T05:42:19;3.13;;;1.30;;
11996;SDS011;6058;48.704;9.474;2022-10-16T05:44:46;1.10;;;1.00;;
11996;SDS011;6058;48.704;9.474;2022-10-16T05:47:14;1.17;;;1.10;;
11996;SDS011;6058;48.704;9.474;2022-10-16T05:49:41;1.33;;;1.23;;
11996;SDS011;6058;48.704;9.474;2022-10-16T05:52:09;4.50;;;1.37;;
11996;SDS011;6058;48.704;9.474;2022-10-16T05:54:36;1.00;;;1.00;;
11996;SDS011;6058;48.704;9.474;2022-10-16T05:57:03;5.43;;;0.90;;
11996;SDS011;6058;48.704;9.474;2022-10-16T05:59:30;2.97;;;1.00;;
11996;SDS011;6058;48.704;9.474;2022-10-16T06:01:57;2.97;;;1.03;;
11996;SDS011;6058;48.704;9.474;2022-10-16T06:04:26;1.80;;;1.10;;
11996;SDS011;6058;48.704;9.474;2022-10-16T06:06:53;4.07;;;1.10;;
11996;SDS011;6058;48.704;9.474;2022-10-16T06:09:20;2.27;;;1.30;;
11996;SDS011;6058;48.704;9.474;2022-10-16T06:11:47;1.17;;;1.07;;
11996;SDS011;6058;48.704;9.474;2022-10-16T06:14:24;4.13;;;1.20;;
11996;SDS011;6058;48.704;9.474;2022-10-16T06:16:51;2.60;;;1.63;;
11996;SDS011;6058;48.704;9.474;2022-10-16T06:19:18;2.57;;;1.20;;
11996;SDS011;6058;48.704;9.474;2022-10-16T06:21:46;4.40;;;1.40;;
11996;SDS011;6058;48.704;9.474;2022-10-16T06:24:14;1.40;;;1.30;;
11996;SDS011;6058;48.704;9.474;2022-10-16T06:26:41;3.70;;;1.30;;
11996;SDS011;6058;48.704;9.474;2022-10-16T06:29:08;5.33;;;1.07;;
11996;SDS011;6058;48.704;9.474;2022-10-16T06:31:35;1.30;;;1.20;;
11996;SDS011;6058;48.704;9.474;2022-10-16T06:34:02;3.40;;;1.20;;
11996;SDS011;6058;48.704;9.474;2022-10-16T06:36:34;1.17;;;1.17;;
11996;SDS011;6058;48.704;9.474;2022-10-16T06:39:02;4.03;;;1.63;;
11996;SDS011;6058;48.704;9.474;2022-10-16T06:41:30;1.87;;;1.57;;
11996;SDS011;6058;48.704;9.474;2022-10-16T06:43:57;3.37;;;1.43;;
11996;SDS011;6058;48.704;9.474;2022-10-16T06:46:24;4.47;;;2.10;;
11996;SDS011;6058;48.704;9.474;2022-10-16T06:48:52;2.67;;;1.40;;
11996;SDS011;6058;48.704;9.474;2022-10-16T06:51:20;2.43;;;1.20;;
11996;SDS011;6058;48.704;9.474;2022-10-16T06:53:55;1.40;;;1.03;;
11996;SDS011;6058;48.704;9.474;2022-10-16T06:56:24;2.57;;;1.40;;
11996;SDS011;6058;48.704;9.474;2022-10-16T06:58:52;2.97;;;1.27;;
11996;SDS011;6058;48.704;9.474;2022-10-16T07:01:20;1.93;;;1.43;;
11996;SDS011;6058;48.704;9.474;2022-10-16T07:03:47;1.67;;;1.53;;
11996;SDS011;6058;48.704;9.474;2022-10-16T07:06:15;5.70;;;1.50;;
11996;SDS011;6058;48.704;9.474;2022-10-16T07:08:43;2.90;;;1.50;;
11996;SDS011;6058;48.704;9.474;2022-10-16T07:11:11;2.23;;;1.00;;
11996;SDS011;6058;48.704;9.474;2022-10-16T07:13:41;1.87;;;1.30;;
11996;SDS011;6058;48.704;9.474;2022-10-16T07:16:10;4.80;;;1.20;;
11996;SDS011;6058;48.704;9.474;2022-10-16T07:18:37;5.80;;;1.93;;
11996;SDS011;6058;48.704;9.474;2022-10-16T07:21:05;3.90;;;1.83;;
11996;SDS011;6058;48.704;9.474;2022-10-16T07:23:32;4.27;;;1.60;;
11996;SDS011;6058;48.704;9.474;2022-10-16T07:26:01;1.30;;;1.20;;
11996;SDS011;6058;48.704;9.474;2022-10-16T07:28:28;1.67;;;1.17;;
11996;SDS011;6058;48.704;9.474;2022-10-16T07:31:03;1.33;;;1.30;;
11996;SDS011;6058;48.704;9.474;2022-10-16T07:33:31;6.90;;;1.50;;
11996;SDS011;6058;48.704;9.474;2022-10-16T07:35:59;4.30;;;1.43;;
11996;SDS011;6058;48.704;9.474;2022-10-16T07:38:26;3.17;;;1.57;;
11996;SDS011;6058;48.704;9.474;2022-10-16T07:40:56;2.50;;;1.43;;
11996;SDS011;6058;48.704;9.474;2022-10-16T07:43:24;1.40;;;1.30;;
11996;SDS011;6058;48.704;9.474;2022-10-16T07:45:51;3.50;;;1.30;;
11996;SDS011;6058;48.704;9.474;2022-10-16T07:48:20;2.40;;;1.47;;
11996;SDS011;6058;48.704;9.474;2022-10-16T07:50:48;1.43;;;1.33;;
11996;SDS011;6058;48.704;9.474;2022-10-16T07:53:15;2.50;;;1.77;;
11996;SDS011;6058;48.704;9.474;2022-10-16T07:55:43;3.17;;;1.50;;
11996;SDS011;6058;48.704;9.474;2022-10-16T07:58:10;2.03;;;1.33;;
11996;SDS011;6058;48.704;9.474;2022-10-16T08:00:37;10.40;;;1.83;;
11996;SDS011;6058;48.704;9.474;2022-10-16T08:03:04;3.30;;;1.60;;
11996;SDS011;6058;48.704;9.474;2022-10-16T08:05:33;3.87;;;1.53;;
11996;SDS011;6058;48.704;9.474;2022-10-16T08:08:00;8.47;;;2.00;;
11996;SDS011;6058;48.704;9.474;2022-10-16T08:10:28;3.47;;;1.63;;
11996;SDS011;6058;48.704;9.474;2022-10-16T08:12:56;1.67;;;1.57;;
11996;SDS011;6058;48.704;9.474;2022-10-16T08:15:24;2.00;;;1.80;;
11996;SDS011;6058;48.704;9.474;2022-10-16T08:17:58;4.33;;;1.70;;
11996;SDS011;6058;48.704;9.474;2022-10-16T08:20:26;4.70;;;3.20;;
11996;SDS011;6058;48.704;9.474;2022-10-16T08:22:55;1.90;;;1.80;;
11996;SDS011;6058;48.704;9.474;2022-10-16T08:25:22;4.50;;;1.43;;
11996;SDS011;6058;48.704;9.474;2022-10-16T08:27:50;4.67;;;2.03;;
11996;SDS011;6058;48.704;9.474;2022-10-16T08:30:17;4.27;;;1.33;;
11996;SDS011;6058;48.704;9.474;2022-10-16T08:32:45;4.27;;;1.33;;
11996;SDS011;6058;48.704;9.474;2022-10-16T08:35:12;1.43;;;1.20;;
11996;SDS011;6058;48.704;9.474;2022-10-16T08:37:40;4.37;;;1.30;;
11996;SDS011;6058;48.704;9.474;2022-10-16T08:40:12;3.90;;;1.37;;
11996;SDS011;6058;48.704;9.474;2022-10-16T08:42:46;2.90;;;1.53;;
11996;SDS011;6058;48.704;9.474;2022-10-16T08:45:23;2.93;;;1.60;;
11996;SDS011;6058;48.704;9.474;2022-10-16T08:47:59;5.80;;;1.50;;
11996;SDS011;6058;48.704;9.474;2022-10-16T08:50:28;2.70;;;1.33;;
11996;SDS011;6058;48.704;9.474;2022-10-16T08:52:56;5.00;;;1.73;;
11996;SDS011;6058;48.704;9.474;2022-10-16T08:55:32;2.67;;;1.53;;
11996;SDS011;6058;48.704;9.474;2022-10-16T08:58:00;1.53;;;1.43;;
11996;SDS011;6058;48.704;9.474;2022-10-16T09:00:28;1.93;;;1.63;;
11996;SDS011;6058;48.704;9.474;2022-10-16T09:02:59;2.27;;;1.60;;
11996;SDS011;6058;48.704;9.474;2022-10-16T09:05:34;1.87;;;1.30;;
11996;SDS011;6058;48.704;9.474;2022-10-16T09:08:07;8.60;;;2.37;;
11996;SDS011;6058;48.704;9.474;2022-10-16T09:10:41;2.37;;;1.70;;
11996;SDS011;6058;48.704;9.474;2022-10-16T09:13:13;3.83;;;2.40;;
11996;SDS011;6058;48.704;9.474;2022-10-16T09:15:46;3.00;;;1.90;;
11996;SDS011;6058;48.704;9.474;2022-10-16T09:18:16;5.97;;;1.97;;
11996;SDS011;6058;48.704;9.474;2022-10-16T09:20:47;7.93;;;2.10;;
11996;SDS011;6058;48.704;9.474;2022-10-16T09:23:17;2.07;;;1.90;;
11996;SDS011;6058;48.704;9.474;2022-10-16T09:25:47;7.43;;;2.17;;
11996;SDS011;6058;48.704;9.474;2022-10-16T09:28:15;5.53;;;2.07;;
11996;SDS011;6058;48.704;9.474;2022-10-16T09:30:42;2.10;;;1.90;;
11996;SDS011;6058;48.704;9.474;2022-10-16T09:33:10;2.47;;;1.93;;
11996;SDS011;6058;48.704;9.474;2022-10-16T09:35:38;2.00;;;1.90;;
11996;SDS011;6058;48.704;9.474;2022-10-16T09:38:06;1.90;;;1.80;;
11996;SDS011;6058;48.704;9.474;2022-10-16T09:40:34;7.97;;;2.20;;
11996;SDS011;6058;48.704;9.474;2022-10-16T09:43:06;4.63;;;2.20;;
11996;SDS011;6058;48.704;9.474;2022-10-16T09:45:35;1.70;;;1.60;;
11996;SDS011;6058;48.704;9.474;2022-10-16T09:48:08;3.27;;;2.13;;
11996;SDS011;6058;48.704;9.474;2022-10-16T09:50:37;2.10;;;1.57;;
11996;SDS011;6058;48.704;9.474;2022-10-16T09:53:05;2.00;;;1.50;;
11996;SDS011;6058;48.704;9.474;2022-10-16T09:55:32;1.63;;;1.30;;
11996;SDS011;6058;48.704;9.474;2022-10-16T09:58:00;1.60;;;1.50;;
11996;SDS011;6058;48.704;9.474;2022-10-16T10:00:28;1.40;;;1.30;;
11996;SDS011;6058;48.704;9.474;2022-10-16T10:02:57;2.10;;;1.40;;
11996;SDS011;6058;48.704;9.474;2022-10-16T10:05:24;3.70;;;1.50;;
11996;SDS011;6058;48.704;9.474;2022-10-16T10:07:54;3.67;;;1.30;;
11996;SDS011;6058;48.704;9.474;2022-10-16T10:10:22;1.40;;;1.30;;
11996;SDS011;6058;48.704;9.474;2022-10-16T10:12:52;1.63;;;1.30;;
11996;SDS011;6058;48.704;9.474;2022-10-16T10:15:21;7.13;;;1.30;;
11996;SDS011;6058;48.704;9.474;2022-10-16T10:17:51;1.57;;;1.07;;
11996;SDS011;6058;48.704;9.474;2022-10-16T10:20:31;2.93;;;1.43;;
11996;SDS011;6058;48.704;9.474;2022-10-16T10:22:59;2.43;;;1.40;;
11996;SDS011;6058;48.704;9.474;2022-10-16T10:25:36;2.80;;;1.40;;
11996;SDS011;6058;48.704;9.474;2022-10-16T10:28:10;4.47;;;1.30;;
11996;SDS011;6058;48.704;9.474;2022-10-16T10:30:44;1.50;;;1.37;;
11996;SDS011;6058;48.704;9.474;2022-10-16T10:33:18;2.07;;;1.50;;
11996;SDS011;6058;48.704;9.474;2022-10-16T10:35:50;2.93;;;1.60;;
11996;SDS011;6058;48.704;9.474;2022-10-16T10:38:22;2.50;;;1.60;;
11996;SDS011;6058;48.704;9.474;2022-10-16T10:40:52;1.60;;;1.50;;
11996;SDS011;6058;48.704;9.474;2022-10-16T10:43:25;4.10;;;1.60;;
11996;SDS011;6058;48.704;9.474;2022-10-16T10:45:57;4.10;;;1.50;;
11996;SDS011;6058;48.704;9.474;2022-10-16T10:48:42;1.50;;;1.40;;
11996;SDS011;6058;48.704;9.474;2022-10-16T10:51:13;1.50;;;1.40;;
11996;SDS011;6058;48.704;9.474;2022-10-16T10:53:44;5.47;;;1.60;;
11996;SDS011;6058;48.704;9.474;2022-10-16T10:56:15;2.50;;;1.10;;
11996;SDS011;6058;48.704;9.474;2022-10-16T10:58:50;3.83;;;1.20;;
11996;SDS011;6058;48.704;9.474;2022-10-16T11:01:22;2.80;;;1.33;;
11996;SDS011;6058;48.704;9.474;2022-10-16T11:04:05;3.10;;;1.40;;
11996;SDS011;6058;48.704;9.474;2022-10-16T11:06:39;1.70;;;1.40;;
11996;SDS011;6058;48.704;9.474;2022-10-16T11:09:09;7.03;;;1.23;;
11996;SDS011;6058;48.704;9.474;2022-10-16T11:11:38;1.50;;;1.40;;
11996;SDS011;6058;48.704;9.474;2022-10-16T11:14:10;3.67;;;1.40;;
11996;SDS011;6058;48.704;9.474;2022-10-16T11:19:10;2.13;;;1.37;;
11996;SDS011;6058;48.704;9.474;2022-10-16T11:21:40;1.67;;;1.57;;
11996;SDS011;6058;48.704;9.474;2022-10-16T11:24:14;2.20;;;1.57;;
11996;SDS011;6058;48.704;9.474;2022-10-16T11:26:43;1.77;;;1.17;;
11996;SDS011;6058;48.704;9.474;2022-10-16T11:29:12;1.30;;;1.20;;
11996;SDS011;6058;48.704;9.474;2022-10-16T11:31:43;2.77;;;1.20;;
11996;SDS011;6058;48.704;9.474;2022-10-16T11:34:15;2.07;;;1.53;;
11996;SDS011;6058;48.704;9.474;2022-10-16T11:36:44;3.73;;;1.20;;
11996;SDS011;6058;48.704;9.474;2022-10-16T11:39:16;4.40;;;1.40;;
11996;SDS011;6058;48.704;9.474;2022-10-16T11:41:45;2.40;;;1.50;;
11996;SDS011;6058;48.704;9.474;2022-10-16T11:44:18;4.07;;;1.57;;
11996;SDS011;6058;48.704;9.474;2022-10-16T11:46:48;1.37;;;1.23;;
11996;SDS011;6058;48.704;9.474;2022-10-16T11:49:20;3.70;;;1.40;;
11996;SDS011;6058;48.704;9.474;2022-10-16T11:51:51;1.47;;;1.37;;
11996;SDS011;6058;48.704;9.474;2022-10-16T11:54:24;1.30;;;1.20;;
11996;SDS011;6058;48.704;9.474;2022-10-16T11:57:01;4.37;;;1.27;;
11996;SDS011;6058;48.704;9.474;2022-10-16T11:59:30;3.63;;;1.20;;
11996;SDS011;6058;48.704;9.474;2022-10-16T12:02:02;7.20;;;1.30;;
11996;SDS011;6058;48.704;9.474;2022-10-16T12:04:39;1.63;;;1.10;;
11996;SDS011;6058;48.704;9.474;2022-10-16T12:07:11;1.97;;;1.30;;
11996;SDS011;6058;48.704;9.474;2022-10-16T12:09:40;2.40;;;1.20;;
11996;SDS011;6058;48.704;9.474;2022-10-16T12:12:23;1.37;;;1.27;;
11996;SDS011;6058;48.704;9.474;2022-10-16T12:15:15;6.87;;;1.20;;
11996;SDS011;6058;48.704;9.474;2022-10-16T12:17:45;0.90;;;0.90;;
11996;SDS011;6058;48.704;9.474;2022-10-16T12:20:24;2.07;;;1.70;;
11996;SDS011;6058;48.704;9.474;2022-10-16T12:22:52;5.23;;;1.30;;
11996;SDS011;6058;48.704;9.474;2022-10-16T12:25:21;3.17;;;1.67;;
11996;SDS011;6058;48.704;9.474;2022-10-16T12:27:56;1.30;;;1.20;;
11996;SDS011;6058;48.704;9.474;2022-10-16T12:30:27;1.37;;;1.00;;
11996;SDS011;6058;48.704;9.474;2022-10-16T12:32:55;1.20;;;1.10;;
11996;SDS011;6058;48.704;9.474;2022-10-16T12:35:25;5.97;;;1.23;;
11996;SDS011;6058;48.704;9.474;2022-10-16T12:37:53;4.53;;;1.23;;
11996;SDS011;6058;48.704;9.474;2022-10-16T12:40:24;5.97;;;1.20;;
11996;SDS011;6058;48.704;9.474;2022-10-16T12:42:53;1.13;;;1.13;;
11996;SDS011;6058;48.704;9.474;2022-10-16T12:45:24;2.30;;;1.20;;
11996;SDS011;6058;48.704;9.474;2022-10-16T12:47:52;2.67;;;1.30;;
11996;SDS011;6058;48.704;9.474;2022-10-16T12:50:26;2.13;;;1.17;;
11996;SDS011;6058;48.704;9.474;2022-10-16T12:52:55;2.63;;;1.10;;
11996;SDS011;6058;48.704;9.474;2022-10-16T12:55:23;2.20;;;1.00;;
11996;SDS011;6058;48.704;9.474;2022-10-16T12:58:05;1.97;;;1.17;;
11996;SDS011;6058;48.704;9.474;2022-10-16T13:00:36;2.47;;;1.10;;
11996;SDS011;6058;48.704;9.474;2022-10-16T13:03:27;3.80;;;2.07;;
11996;SDS011;6058;48.704;9.474;2022-10-16T13:06:02;2.30;;;1.00;;
11996;SDS011;6058;48.704;9.474;2022-10-16T13:08:47;1.17;;;1.00;;
11996;SDS011;6058;48.704;9.474;2022-10-16T13:11:20;2.40;;;1.30;;
11996;SDS011;6058;48.704;9.474;2022-10-16T13:13:56;0.90;;;0.90;;
11996;SDS011;6058;48.704;9.474;2022-10-16T13:16:28;2.03;;;1.00;;
11996;SDS011;6058;48.704;9.474;2022-10-16T13:19:00;2.13;;;1.17;;
11996;SDS011;6058;48.704;9.474;2022-10-16T13:21:36;1.20;;;1.10;;
11996;SDS011;6058;48.704;9.474;2022-10-16T13:24:09;2.03;;;1.07;;
11996;SDS011;6058;48.704;9.474;2022-10-16T13:26:40;2.37;;;0.97;;
11996;SDS011;6058;48.704;9.474;2022-10-16T13:29:10;0.80;;;0.80;;
11996;SDS011;6058;48.704;9.474;2022-10-16T13:31:37;1.20;;;1.20;;
11996;SDS011;6058;48.704;9.474;2022-10-16T13:34:05;2.17;;;1.10;;
11996;SDS011;6058;48.704;9.474;2022-10-16T13:36:35;1.13;;;1.03;;
11996;SDS011;6058;48.704;9.474;2022-10-16T13:39:11;4.90;;;1.00;;
11996;SDS011;6058;48.704;9.474;2022-10-16T13:41:41;1.77;;;1.03;;
11996;SDS011;6058;48.704;9.474;2022-10-16T13:44:11;2.63;;;1.20;;
11996;SDS011;6058;48.704;9.474;2022-10-16T13:46:39;5.17;;;1.00;;
11996;SDS011;6058;48.704;9.474;2022-10-16T13:49:12;1.07;;;0.90;;
11996;SDS011;6058;48.704;9.474;2022-10-16T13:51:40;2.63;;;1.10;;
11996;SDS011;6058;48.704;9.474;2022-10-16T13:54:09;1.33;;;1.23;;
11996;SDS011;6058;48.704;9.474;2022-10-16T13:56:38;3.40;;;1.40;;
11996;SDS011;6058;48.704;9.474;2022-10-16T13:59:06;4.73;;;1.13;;
11996;SDS011;6058;48.704;9.474;2022-10-16T14:01:34;1.20;;;1.07;;
11996;SDS011;6058;48.704;9.474;2022-10-16T14:04:02;3.00;;;1.50;;
11996;SDS011;6058;48.704;9.474;2022-10-16T14:06:30;1.07;;;1.00;;
11996;SDS011;6058;48.704;9.474;2022-10-16T14:09:00;5.57;;;1.37;;
11996;SDS011;6058;48.704;9.474;2022-10-16T14:11:28;1.50;;;1.40;;
11996;SDS011;6058;48.704;9.474;2022-10-16T14:13:55;1.50;;;1.40;;
11996;SDS011;6058;48.704;9.474;2022-10-16T14:16:23;5.10;;;1.10;;
11996;SDS011;6058;48.704;9.474;2022-10-16T14:18:55;4.33;;;1.50;;
11996;SDS011;6058;48.704;9.474;2022-10-16T14:21:23;2.00;;;1.53;;
11996;SDS011;6058;48.704;9.474;2022-10-16T14:23:51;4.40;;;1.50;;
11996;SDS011;6058;48.704;9.474;2022-10-16T14:26:20;3.67;;;1.27;;
11996;SDS011;6058;48.704;9.474;2022-10-16T14:29:00;1.43;;;1.33;;
11996;SDS011;6058;48.704;9.474;2022-10-16T14:31:34;3.40;;;1.40;;
11996;SDS011;6058;48.704;9.474;2022-10-16T14:34:02;3.00;;;1.50;;
11996;SDS011;6058;48.704;9.474;2022-10-16T14:36:29;1.73;;;1.40;;
11996;SDS011;6058;48.704;9.474;2022-10-16T14:38:58;8.10;;;1.50;;
11996;SDS011;6058;48.704;9.474;2022-10-16T14:41:28;1.63;;;1.50;;
11996;SDS011;6058;48.704;9.474;2022-10-16T14:43:55;7.07;;;2.10;;
11996;SDS011;6058;48.704;9.474;2022-10-16T14:46:28;6.63;;;1.70;;
11996;SDS011;6058;48.704;9.474;2022-10-16T14:48:58;5.13;;;2.03;;
11996;SDS011;6058;48.704;9.474;2022-10-16T14:51:26;2.77;;;1.20;;
11996;SDS011;6058;48.704;9.474;2022-10-16T14:53:53;2.87;;;1.60;;
11996;SDS011;6058;48.704;9.474;2022-10-16T14:56:21;2.13;;;1.47;;
11996;SDS011;6058;48.704;9.474;2022-10-16T14:58:51;2.53;;;1.10;;
11996;SDS011;6058;48.704;9.474;2022-10-16T15:01:19;1.07;;;1.00;;
11996;SDS011;6058;48.704;9.474;2022-10-16T15:03:46;2.30;;;1.40;;
11996;SDS011;6058;48.704;9.474;2022-10-16T15:06:13;9.50;;;1.40;;
11996;SDS011;6058;48.704;9.474;2022-10-16T15:08:41;1.57;;;1.27;;
11996;SDS011;6058;48.704;9.474;2022-10-16T15:11:08;1.93;;;1.37;;
11996;SDS011;6058;48.704;9.474;2022-10-16T15:13:37;9.80;;;1.50;;
11996;SDS011;6058;48.704;9.474;2022-10-16T15:16:07;1.60;;;1.20;;
11996;SDS011;6058;48.704;9.474;2022-10-16T15:18:34;1.40;;;1.30;;
11996;SDS011;6058;48.704;9.474;2022-10-16T15:21:01;1.93;;;1.40;;